Terminal Aerodrome Forecast
Issued by NWS Upton, NY

Home | Current Version | Previous Version | Text Only | Print | Product List | Glossary On
Versions: 1 2 3 4 5 6 7 8 9 10 11 12 13 14 15 16 17 18 19 20 21 22 23 24 25 26 27 28 29 30 31 32 33 34 35
000
FTUS41 KOKX 211121
TAFJFK
TAF
KJFK 211121Z 2112/2218 VRB04KT 3SM -RA BR OVC080
     FM211300 28012KT P6SM SCT080
     FM211600 27015G23KT P6SM SCT080
     FM211900 26018G28KT P6SM SCT050
     FM220000 25012KT P6SM FEW050
     FM220400 22008KT P6SM SKC
     FM221500 19015G25KT P6SM BKN050 OVC120=

USA.gov is the U.S. government's official web portal to all federal, state and local government web resources and services.